Time;durP1;ratioP1;P1;durP2;ratioP2;P2;SDS_P1;SDS_P2;PMS_P1;PMS_P2;Temp;Humidity;BMP_temperature;BMP_pressure;BME280_temperature;BME280_humidity;BME280_pressure;Samples;Min_cycle;Max_cycle;Signal;HPM_P1;HPM_P2
2022/08/12 00:44:48;;;;;;;6.55;2.20;;;;;;;;;;5051772;28;20036;-68
2022/08/12 00:47:16;;;;;;;8.80;2.85;;;;;;;;;;5052028;28;20057;-68
2022/08/12 00:49:43;;;;;;;6.35;2.85;;;;;;;;;;5052278;28;20041;-68
2022/08/12 00:52:10;;;;;;;7.72;2.70;;;;;;;;;;5052997;28;20036;-68
2022/08/12 00:54:36;;;;;;;8.23;2.72;;;;;;;;;;5052324;28;20041;-67
2022/08/12 00:57:08;;;;;;;6.00;2.80;;;;;;;;;;5052998;28;20414;-68
2022/08/12 00:59:35;;;;;;;7.45;2.92;;;;;;;;;;5050987;28;20036;-68
2022/08/12 01:02:03;;;;;;;5.97;2.40;;;;;;;;;;5039849;28;20060;-68
2022/08/12 01:12:47;;;;;;;15.18;2.75;;;;;;;;;;5049903;28;20067;-68
2022/08/12 01:15:14;;;;;;;10.25;2.63;;;;;;;;;;5053248;28;20087;-68
2022/08/12 01:17:43;;;;;;;7.32;2.38;;;;;;;;;;5052784;28;20562;-68
2022/08/12 01:20:12;;;;;;;5.40;2.22;;;;;;;;;;5049784;28;20044;-68
2022/08/12 01:22:47;;;;;;;6.32;2.70;;;;;;;;;;5049544;28;20040;-69
2022/08/12 01:25:18;;;;;;;6.50;2.17;;;;;;;;;;5050614;28;20097;-67
2022/08/12 01:27:46;;;;;;;4.88;2.03;;;;;;;;;;5050942;28;20071;-67
2022/08/12 01:30:13;;;;;;;5.90;2.08;;;;;;;;;;5051201;28;20146;-68
2022/08/12 01:32:41;;;;;;;3.78;1.85;;;;;;;;;;5049966;28;20041;-66
2022/08/12 01:35:10;;;;;;;6.95;2.03;;;;;;;;;;5051223;28;20048;-68
2022/08/12 01:37:45;;;;;;;5.85;2.17;;;;;;;;;;5051621;28;20032;-67
2022/08/12 01:40:15;;;;;;;9.23;2.40;;;;;;;;;;5051815;28;20090;-68
2022/08/12 01:42:49;;;;;;;6.60;2.08;;;;;;;;;;5050762;28;20401;-68
2022/08/12 01:45:18;;;;;;;9.00;2.08;;;;;;;;;;5051247;28;20621;-68
2022/08/12 01:47:48;;;;;;;9.35;2.38;;;;;;;;;;5050645;28;20037;-68
2022/08/12 01:50:33;;;;;;;8.90;2.42;;;;;;;;;;5049967;28;20049;-68
2022/08/12 01:53:05;;;;;;;5.80;2.40;;;;;;;;;;5049380;28;20079;-67
2022/08/12 01:55:33;;;;;;;5.20;2.20;;;;;;;;;;5050453;28;20036;-68
2022/08/12 01:58:00;;;;;;;8.98;2.17;;;;;;;;;;5051852;28;20040;-68
2022/08/12 02:00:47;;;;;;;5.00;2.22;;;;;;;;;;5049193;28;20078;-68
2022/08/12 02:03:22;;;;;;;6.28;2.50;;;;;;;;;;5051648;28;20064;-67
2022/08/12 02:11:47;;;;;;;5.70;2.25;;;;;;;;;;5051169;28;20044;-68
2022/08/12 02:14:17;;;;;;;12.50;2.85;;;;;;;;;;5053005;28;20457;-68
2022/08/12 02:17:04;;;;;;;6.03;2.17;;;;;;;;;;5052489;28;20656;-68
2022/08/12 02:19:49;;;;;;;5.95;2.20;;;;;;;;;;5050459;28;22240;-68
2022/08/12 02:22:27;;;;;;;9.23;2.35;;;;;;;;;;5053484;28;20079;-68
2022/08/12 02:24:59;;;;;;;7.53;2.20;;;;;;;;;;5051388;28;20132;-69
2022/08/12 02:27:26;;;;;;;5.95;2.20;;;;;;;;;;5053073;28;20594;-68
2022/08/12 02:29:53;;;;;;;4.82;1.83;;;;;;;;;;5052113;28;20076;-68
2022/08/12 02:32:20;;;;;;;5.05;1.85;;;;;;;;;;5051671;28;20624;-68
2022/08/12 02:34:47;;;;;;;7.40;2.30;;;;;;;;;;5048488;28;20391;-67
2022/08/12 02:37:15;;;;;;;6.28;2.03;;;;;;;;;;5048384;28;21092;-68
2022/08/12 02:39:45;;;;;;;7.18;2.20;;;;;;;;;;5048079;28;20725;-68
2022/08/12 02:42:14;;;;;;;5.18;2.03;;;;;;;;;;5050877;28;20043;-68
2022/08/12 02:44:44;;;;;;;6.32;2.08;;;;;;;;;;5049238;28;20602;-68
2022/08/12 02:47:12;;;;;;;6.85;2.42;;;;;;;;;;5050620;28;20566;-69
2022/08/12 02:49:41;;;;;;;9.07;2.28;;;;;;;;;;5048142;28;20124;-68
2022/08/12 02:52:08;;;;;;;6.18;1.98;;;;;;;;;;5050390;28;20040;-68
2022/08/12 02:54:35;;;;;;;8.52;2.50;;;;;;;;;;5048692;28;20047;-67
2022/08/12 02:57:02;;;;;;;10.00;2.25;;;;;;;;;;5054453;28;20041;-67
2022/08/12 02:59:29;;;;;;;7.53;2.58;;;;;;;;;;5052319;28;20041;-68
2022/08/12 03:01:56;;;;;;;11.00;2.38;;;;;;;;;;5041014;28;20028;-67
2022/08/12 03:04:31;;;;;;;11.82;2.78;;;;;;;;;;5051442;28;20041;-68
2022/08/12 03:07:09;;;;;;;11.13;2.53;;;;;;;;;;5057921;28;20061;-68
2022/08/12 03:09:44;;;;;;;13.35;5.70;;;;;;;;;;5039659;28;20566;-67
2022/08/12 03:12:12;;;;;;;4.93;2.47;;;;;;;;;;5054699;28;20037;-68
2022/08/12 03:14:42;;;;;;;10.25;2.78;;;;;;;;;;5054344;28;20393;-67
2022/08/12 03:17:22;;;;;;;12.23;2.63;;;;;;;;;;5053637;28;20509;-68
2022/08/12 03:19:52;;;;;;;17.23;2.80;;;;;;;;;;5053459;28;20044;-68
2022/08/12 03:22:20;;;;;;;6.30;2.30;;;;;;;;;;5055246;28;20127;-68
2022/08/12 03:24:47;;;;;;;5.65;2.72;;;;;;;;;;5054331;28;20129;-69
2022/08/12 03:27:14;;;;;;;15.52;6.90;;;;;;;;;;5055948;28;20075;-66
2022/08/12 03:29:48;;;;;;;10.10;3.22;;;;;;;;;;5055352;28;20052;-69
2022/08/12 03:32:15;;;;;;;9.70;2.60;;;;;;;;;;5056301;28;20170;-67
2022/08/12 03:34:44;;;;;;;7.60;3.03;;;;;;;;;;5052469;28;20442;-67
2022/08/12 03:37:10;;;;;;;9.57;2.70;;;;;;;;;;5053850;28;20055;-68
2022/08/12 03:42:12;;;;;;;7.03;2.60;;;;;;;;;;5056518;28;20041;-68
2022/08/12 04:01:56;;;;;;;11.15;2.67;;;;;;;;;;5054156;28;20040;-67
2022/08/12 04:04:27;;;;;;;9.85;3.80;;;;;;;;;;5053587;28;20091;-68
2022/08/12 04:06:54;;;;;;;10.00;3.00;;;;;;;;;;5053038;28;20056;-68
2022/08/12 04:09:22;;;;;;;12.05;2.80;;;;;;;;;;5041545;28;20044;-66
2022/08/12 04:14:34;;;;;;;7.85;2.60;;;;;;;;;;5053144;28;20063;-66
2022/08/12 04:17:01;;;;;;;8.50;2.58;;;;;;;;;;5054920;28;20037;-67
2022/08/12 04:19:29;;;;;;;9.90;2.92;;;;;;;;;;5053139;28;20423;-67
2022/08/12 04:21:56;;;;;;;8.32;2.70;;;;;;;;;;5053939;28;20052;-68
2022/08/12 04:24:26;;;;;;;7.93;2.70;;;;;;;;;;5055172;28;20946;-67
2022/08/12 04:26:52;;;;;;;14.55;2.85;;;;;;;;;;5053584;28;20048;-65
2022/08/12 04:29:23;;;;;;;14.00;2.55;;;;;;;;;;5053705;28;20037;-68
2022/08/12 04:31:49;;;;;;;8.15;2.38;;;;;;;;;;5053361;28;20064;-67
2022/08/12 04:34:17;;;;;;;13.48;2.75;;;;;;;;;;5052971;28;20044;-67
2022/08/12 04:36:44;;;;;;;11.02;2.90;;;;;;;;;;5052510;28;20045;-68
2022/08/12 04:39:12;;;;;;;10.32;2.72;;;;;;;;;;5052617;28;20628;-67
2022/08/12 04:41:40;;;;;;;7.68;2.60;;;;;;;;;;5053154;28;20047;-67
2022/08/12 04:44:07;;;;;;;7.28;2.70;;;;;;;;;;5056249;28;20036;-67
2022/08/12 04:46:34;;;;;;;9.27;2.67;;;;;;;;;;5054463;28;20037;-67
2022/08/12 04:49:01;;;;;;;11.02;2.47;;;;;;;;;;5055159;28;20139;-67
2022/08/12 04:51:28;;;;;;;7.38;3.20;;;;;;;;;;5054933;28;20090;-67
2022/08/12 04:53:55;;;;;;;14.40;6.10;;;;;;;;;;5055264;28;20123;-67
2022/08/12 04:56:22;;;;;;;17.42;7.20;;;;;;;;;;5056787;28;20040;-67
2022/08/12 04:58:48;;;;;;;10.65;3.63;;;;;;;;;;5054103;28;20060;-68
2022/08/12 05:01:15;;;;;;;6.63;2.88;;;;;;;;;;5053707;28;20148;-68
2022/08/12 05:03:42;;;;;;;9.60;3.00;;;;;;;;;;5054760;28;20033;-68
2022/08/12 05:06:08;;;;;;;6.38;2.40;;;;;;;;;;5052028;28;20110;-67
2022/08/12 05:08:35;;;;;;;8.18;2.33;;;;;;;;;;5051752;28;20925;-70
2022/08/12 05:11:05;;;;;;;10.77;2.97;;;;;;;;;;5051879;28;20036;-68
2022/08/12 05:13:35;;;;;;;5.78;2.38;;;;;;;;;;5057463;28;20078;-68
2022/08/12 05:16:02;;;;;;;9.05;3.00;;;;;;;;;;5042048;28;20033;-67
2022/08/12 05:18:29;;;;;;;7.10;2.85;;;;;;;;;;5049600;28;20052;-67
2022/08/12 05:20:57;;;;;;;10.15;2.95;;;;;;;;;;5053060;28;20527;-68
2022/08/12 05:23:23;;;;;;;5.57;2.50;;;;;;;;;;5053234;28;20102;-68
2022/08/12 05:25:55;;;;;;;7.10;2.90;;;;;;;;;;5053115;28;20055;-68
2022/08/12 05:28:21;;;;;;;9.00;2.65;;;;;;;;;;5050753;28;20145;-68
2022/08/12 05:30:48;;;;;;;12.10;2.88;;;;;;;;;;5053206;28;20036;-68
2022/08/12 05:33:15;;;;;;;8.63;2.35;;;;;;;;;;5044582;28;20032;-68
2022/08/12 05:35:43;;;;;;;10.55;2.75;;;;;;;;;;5052254;28;20051;-67
2022/08/12 05:40:55;;;;;;;5.70;2.15;;;;;;;;;;5052279;28;20079;-67
2022/08/12 05:43:22;;;;;;;11.02;2.50;;;;;;;;;;5053752;28;20048;-67
2022/08/12 05:45:49;;;;;;;7.75;2.60;;;;;;;;;;5054171;28;20613;-67
2022/08/12 05:48:16;;;;;;;8.50;2.47;;;;;;;;;;5042940;28;20451;-67
2022/08/12 05:50:44;;;;;;;8.02;2.38;;;;;;;;;;5052733;28;20059;-67
2022/08/12 05:53:11;;;;;;;8.20;2.28;;;;;;;;;;5052603;28;20123;-68
2022/08/12 05:55:39;;;;;;;7.88;2.13;;;;;;;;;;5052053;28;20068;-68
2022/08/12 05:58:06;;;;;;;6.15;2.55;;;;;;;;;;5052271;28;20040;-68
2022/08/12 06:00:33;;;;;;;6.13;2.33;;;;;;;;;;5051152;28;20215;-67
2022/08/12 06:03:01;;;;;;;6.03;2.33;;;;;;;;;;5052893;28;20052;-66
2022/08/12 06:05:28;;;;;;;8.05;2.72;;;;;;;;;;5052424;28;20415;-66
2022/08/12 06:07:55;;;;;;;6.50;2.33;;;;;;;;;;5052330;28;20045;-66
2022/08/12 06:10:22;;;;;;;8.68;2.67;;;;;;;;;;5056357;28;20494;-67
2022/08/12 06:12:50;;;;;;;5.40;2.60;;;;;;;;;;5054400;28;20037;-67
2022/08/12 06:15:16;;;;;;;5.38;2.38;;;;;;;;;;5052022;28;20061;-66
2022/08/12 06:17:43;;;;;;;10.05;2.35;;;;;;;;;;5052294;28;20047;-66
2022/08/12 06:20:12;;;;;;;8.60;2.65;;;;;;;;;;5051317;28;20074;-66
2022/08/12 06:22:46;;;;;;;13.02;3.30;;;;;;;;;;5047694;28;20033;-67
2022/08/12 06:25:17;;;;;;;10.85;3.10;;;;;;;;;;5051701;28;22053;-66
2022/08/12 06:27:47;;;;;;;9.18;3.05;;;;;;;;;;5033311;28;20131;-66
2022/08/12 06:30:19;;;;;;;8.27;2.63;;;;;;;;;;5058111;28;20028;-67
2022/08/12 06:32:46;;;;;;;6.25;2.83;;;;;;;;;;5058906;28;20044;-67
2022/08/12 06:35:15;;;;;;;6.75;2.40;;;;;;;;;;5058729;28;20048;-66
2022/08/12 06:37:46;;;;;;;5.88;2.70;;;;;;;;;;5061243;28;20045;-66
2022/08/12 06:40:13;;;;;;;8.50;3.03;;;;;;;;;;5056930;28;20036;-67
2022/08/12 06:42:52;;;;;;;6.18;2.70;;;;;;;;;;5057879;28;20054;-68
2022/08/12 06:45:19;;;;;;;4.88;2.05;;;;;;;;;;5056073;28;20064;-67
2022/08/12 06:47:46;;;;;;;14.55;2.92;;;;;;;;;;5056981;28;20056;-67
2022/08/12 06:50:15;;;;;;;8.07;2.55;;;;;;;;;;5056481;28;20033;-67
2022/08/12 06:52:45;;;;;;;6.90;2.67;;;;;;;;;;5056967;28;20075;-67
2022/08/12 06:55:14;;;;;;;6.88;2.70;;;;;;;;;;5059427;28;20036;-67
2022/08/12 06:57:53;;;;;;;7.10;2.70;;;;;;;;;;5060152;28;20037;-68
2022/08/12 07:00:29;;;;;;;5.35;2.50;;;;;;;;;;5057479;28;20040;-67
2022/08/12 07:02:56;;;;;;;5.47;2.47;;;;;;;;;;5060092;28;20036;-67
2022/08/12 07:05:23;;;;;;;5.75;2.70;;;;;;;;;;5063544;28;20029;-67
2022/08/12 07:07:54;;;;;;;7.43;2.75;;;;;;;;;;5046870;28;20041;-68
2022/08/12 07:10:22;;;;;;;6.13;2.30;;;;;;;;;;5059340;28;20208;-67
2022/08/12 07:12:53;;;;;;;9.32;2.72;;;;;;;;;;5050095;28;20145;-68
2022/08/12 07:15:25;;;;;;;7.70;2.80;;;;;;;;;;5059090;28;20041;-68
2022/08/12 07:18:28;;;;;;;5.57;2.70;;;;;;;;;;5060097;28;20064;-67
2022/08/12 07:20:49;;;;;;;6.10;2.60;;;;;;;;;;5055156;28;20296;-67
2022/08/12 07:23:17;;;;;;;9.50;2.80;;;;;;;;;;5059982;28;21699;-67
2022/08/12 07:25:43;;;;;;;6.47;2.50;;;;;;;;;;5059442;28;20071;-66
2022/08/12 07:28:11;;;;;;;5.32;2.30;;;;;;;;;;5057153;28;20036;-67
2022/08/12 07:30:39;;;;;;;6.85;2.45;;;;;;;;;;5055584;28;20375;-67
2022/08/12 07:33:09;;;;;;;6.32;2.67;;;;;;;;;;5058015;28;20047;-67
2022/08/12 07:35:46;;;;;;;8.45;2.80;;;;;;;;;;5058481;28;20036;-67
2022/08/12 07:38:26;;;;;;;7.93;2.78;;;;;;;;;;5058387;28;20063;-68
2022/08/12 07:40:54;;;;;;;7.65;2.50;;;;;;;;;;5057373;28;20048;-67
2022/08/12 07:43:21;;;;;;;6.85;2.55;;;;;;;;;;5055139;28;20115;-68
2022/08/12 07:45:48;;;;;;;6.68;2.80;;;;;;;;;;5043381;28;20052;-67
2022/08/12 07:48:15;;;;;;;7.80;2.70;;;;;;;;;;5054156;28;20036;-67
2022/08/12 07:50:42;;;;;;;5.72;2.45;;;;;;;;;;5054017;28;20525;-67
2022/08/12 07:53:09;;;;;;;5.85;2.63;;;;;;;;;;5054730;28;20029;-67
2022/08/12 07:55:36;;;;;;;6.82;2.63;;;;;;;;;;5052116;28;20036;-67
2022/08/12 07:58:02;;;;;;;10.20;2.90;;;;;;;;;;5052934;28;20043;-67
2022/08/12 08:00:31;;;;;;;6.18;2.72;;;;;;;;;;5053696;28;20606;-67
2022/08/12 08:02:58;;;;;;;5.40;2.58;;;;;;;;;;5054771;28;20122;-67
2022/08/12 08:05:27;;;;;;;7.22;2.53;;;;;;;;;;5053998;28;20041;-67
2022/08/12 08:07:59;;;;;;;6.25;2.40;;;;;;;;;;5053502;28;20052;-66
2022/08/12 08:10:26;;;;;;;8.87;2.87;;;;;;;;;;5054867;28;20048;-67
2022/08/12 08:12:53;;;;;;;8.57;3.05;;;;;;;;;;5053534;28;20273;-67
2022/08/12 08:15:20;;;;;;;8.38;2.92;;;;;;;;;;5054204;28;20099;-68
2022/08/12 08:18:00;;;;;;;7.35;2.92;;;;;;;;;;5054647;28;20036;-68
2022/08/12 08:20:27;;;;;;;8.10;2.65;;;;;;;;;;5053501;28;20055;-67
2022/08/12 08:22:58;;;;;;;7.57;2.83;;;;;;;;;;5051083;28;20047;-67
2022/08/12 08:25:31;;;;;;;6.65;2.63;;;;;;;;;;5037310;28;20435;-66
2022/08/12 08:28:03;;;;;;;7.38;3.00;;;;;;;;;;5051529;28;20052;-67
2022/08/12 08:30:30;;;;;;;10.07;2.83;;;;;;;;;;5054211;28;20056;-66
2022/08/12 08:32:57;;;;;;;8.40;2.72;;;;;;;;;;5055029;28;20451;-67
2022/08/12 08:35:24;;;;;;;7.13;2.90;;;;;;;;;;5051913;28;20079;-66
2022/08/12 08:37:52;;;;;;;6.30;2.70;;;;;;;;;;5056040;28;20040;-67
2022/08/12 08:43:06;;;;;;;5.03;2.72;;;;;;;;;;5054527;28;20537;-67
2022/08/12 08:45:32;;;;;;;6.25;2.90;;;;;;;;;;5052670;28;20043;-67
2022/08/12 08:47:59;;;;;;;6.43;2.60;;;;;;;;;;5054430;28;20044;-67
2022/08/12 08:50:26;;;;;;;9.45;2.80;;;;;;;;;;5052848;28;20163;-67
2022/08/12 08:52:52;;;;;;;6.38;2.63;;;;;;;;;;5052791;28;20099;-68
2022/08/12 08:55:19;;;;;;;6.50;2.65;;;;;;;;;;5052525;28;20037;-68
2022/08/12 08:57:50;;;;;;;6.47;2.40;;;;;;;;;;5051754;28;20032;-67
2022/08/12 09:00:19;;;;;;;11.23;3.00;;;;;;;;;;5052745;28;20078;-66
2022/08/12 09:02:46;;;;;;;5.88;2.30;;;;;;;;;;5051920;28;20176;-67
2022/08/12 09:05:13;;;;;;;6.43;2.63;;;;;;;;;;5051296;28;20125;-67
2022/08/12 09:07:47;;;;;;;6.15;2.30;;;;;;;;;;5037996;28;20048;-67
2022/08/12 09:10:18;;;;;;;7.43;3.42;;;;;;;;;;5038641;28;20128;-67
2022/08/12 09:15:31;;;;;;;10.48;2.90;;;;;;;;;;5050569;28;20048;-67
2022/08/12 09:18:00;;;;;;;6.68;2.65;;;;;;;;;;5049769;28;21019;-67
2022/08/12 09:20:28;;;;;;;6.78;2.72;;;;;;;;;;5052703;28;20044;-67
2022/08/12 09:22:56;;;;;;;7.20;3.10;;;;;;;;;;5054313;28;20028;-67
2022/08/12 09:25:26;;;;;;;7.22;2.92;;;;;;;;;;5054193;28;20040;-67
2022/08/12 09:27:53;;;;;;;5.07;2.50;;;;;;;;;;5040567;28;20116;-66
2022/08/12 09:30:20;;;;;;;5.55;2.88;;;;;;;;;;5053390;28;20129;-66
2022/08/12 09:32:50;;;;;;;6.28;2.97;;;;;;;;;;5053208;28;20052;-67
2022/08/12 09:35:24;;;;;;;7.57;2.85;;;;;;;;;;5040332;28;20044;-67
2022/08/12 09:37:52;;;;;;;7.38;2.88;;;;;;;;;;5051632;28;20041;-67
2022/08/12 09:40:19;;;;;;;12.00;3.35;;;;;;;;;;5050959;28;20041;-67
2022/08/12 09:45:32;;;;;;;9.30;2.92;;;;;;;;;;5050540;28;20102;-67
2022/08/12 09:48:03;;;;;;;5.93;3.20;;;;;;;;;;5051201;28;20474;-67
2022/08/12 09:50:30;;;;;;;10.45;3.47;;;;;;;;;;5051003;28;20106;-66
2022/08/12 09:53:10;;;;;;;8.88;3.40;;;;;;;;;;5051760;28;20668;-66
2022/08/12 09:55:38;;;;;;;7.22;3.05;;;;;;;;;;5050163;28;20618;-67
2022/08/12 09:58:05;;;;;;;6.25;3.13;;;;;;;;;;5051865;28;20040;-67
2022/08/12 10:00:33;;;;;;;6.22;3.30;;;;;;;;;;5051712;28;20068;-67
2022/08/12 10:03:03;;;;;;;8.27;3.10;;;;;;;;;;5051334;28;20044;-66
2022/08/12 10:05:35;;;;;;;8.88;3.25;;;;;;;;;;5051460;28;20072;-67
2022/08/12 10:08:02;;;;;;;13.95;3.97;;;;;;;;;;5050530;28;20040;-67
2022/08/12 10:10:29;;;;;;;10.55;4.00;;;;;;;;;;5049892;28;20037;-67
2022/08/12 10:15:45;;;;;;;7.57;3.70;;;;;;;;;;5050184;28;20090;-67
2022/08/12 10:18:12;;;;;;;7.20;3.40;;;;;;;;;;5051342;28;20039;-66
2022/08/12 10:20:39;;;;;;;12.60;3.97;;;;;;;;;;5050403;28;20072;-67
2022/08/12 10:23:07;;;;;;;9.82;4.07;;;;;;;;;;5050593;28;20041;-67
2022/08/12 10:31:04;;;;;;;9.00;4.03;;;;;;;;;;5051091;28;20147;-67
2022/08/12 10:33:32;;;;;;;7.18;4.03;;;;;;;;;;5049681;28;20040;-67
2022/08/12 10:35:59;;;;;;;7.50;3.67;;;;;;;;;;5051144;28;20048;-67
2022/08/12 10:38:26;;;;;;;9.73;3.60;;;;;;;;;;5049500;28;20036;-67
2022/08/12 10:43:41;;;;;;;10.18;4.10;;;;;;;;;;5050430;28;20120;-66
2022/08/12 10:46:16;;;;;;;8.93;4.05;;;;;;;;;;5050919;28;20124;-66
2022/08/12 10:48:46;;;;;;;9.63;4.55;;;;;;;;;;5049995;28;20446;-67
2022/08/12 10:51:13;;;;;;;14.32;3.75;;;;;;;;;;5050730;28;20818;-64
2022/08/12 10:53:43;;;;;;;11.77;4.00;;;;;;;;;;5050901;28;20501;-66
2022/08/12 10:56:10;;;;;;;10.57;4.20;;;;;;;;;;5050910;28;20037;-66
2022/08/12 10:58:40;;;;;;;11.80;3.63;;;;;;;;;;5049693;28;20105;-68
2022/08/12 11:01:09;;;;;;;9.05;3.90;;;;;;;;;;5051773;28;20041;-67
2022/08/12 11:03:40;;;;;;;7.28;3.95;;;;;;;;;;5050405;28;20041;-67
2022/08/12 11:06:07;;;;;;;7.57;3.90;;;;;;;;;;5050594;28;20052;-67
2022/08/12 11:08:36;;;;;;;10.30;3.50;;;;;;;;;;5049413;28;21766;-67
2022/08/12 11:11:04;;;;;;;7.15;3.95;;;;;;;;;;5038922;28;20127;-67
2022/08/12 11:13:31;;;;;;;9.57;3.53;;;;;;;;;;5051940;28;20045;-67
2022/08/12 11:15:58;;;;;;;7.80;3.30;;;;;;;;;;5055752;28;21394;-67
2022/08/12 11:18:24;;;;;;;7.78;3.72;;;;;;;;;;5052361;28;20110;-67
2022/08/12 11:20:53;;;;;;;9.18;3.83;;;;;;;;;;5055818;28;20059;-66
2022/08/12 11:23:20;;;;;;;11.00;3.85;;;;;;;;;;5053691;28;20049;-66
2022/08/12 11:25:46;;;;;;;10.02;3.42;;;;;;;;;;5056485;28;20040;-67
2022/08/12 11:28:13;;;;;;;8.07;3.55;;;;;;;;;;5044895;28;20120;-67
2022/08/12 11:30:40;;;;;;;7.50;3.13;;;;;;;;;;5054465;28;20048;-67
2022/08/12 11:33:07;;;;;;;10.65;3.45;;;;;;;;;;5055694;28;20114;-67
2022/08/12 11:35:35;;;;;;;8.77;3.38;;;;;;;;;;5060579;28;20220;-67
2022/08/12 11:38:02;;;;;;;9.85;3.72;;;;;;;;;;5057104;28;20046;-67
2022/08/12 11:40:29;;;;;;;9.13;3.47;;;;;;;;;;5054902;28;20161;-67
2022/08/12 11:42:56;;;;;;;7.90;3.63;;;;;;;;;;5056708;28;20036;-67
2022/08/12 11:45:23;;;;;;;7.07;3.42;;;;;;;;;;5053390;28;20707;-67
2022/08/12 11:47:49;;;;;;;6.40;3.45;;;;;;;;;;5054339;28;20166;-67
2022/08/12 11:50:16;;;;;;;7.78;3.65;;;;;;;;;;5054919;28;20044;-67
2022/08/12 11:52:42;;;;;;;8.38;3.72;;;;;;;;;;5055671;28;20043;-67
2022/08/12 11:55:09;;;;;;;6.97;3.55;;;;;;;;;;5054113;28;20032;-67
2022/08/12 11:57:46;;;;;;;6.85;3.28;;;;;;;;;;5055067;28;20093;-67
2022/08/12 12:00:13;;;;;;;12.73;3.80;;;;;;;;;;5042413;28;20851;-67
2022/08/12 12:02:40;;;;;;;8.38;3.35;;;;;;;;;;5052744;28;20036;-67
2022/08/12 12:05:07;;;;;;;12.73;3.42;;;;;;;;;;5054472;28;20067;-66
2022/08/12 12:07:37;;;;;;;10.05;3.35;;;;;;;;;;5053697;28;20110;-67
2022/08/12 12:10:04;;;;;;;6.63;3.20;;;;;;;;;;5054042;28;20512;-67
2022/08/12 12:12:30;;;;;;;11.95;3.70;;;;;;;;;;5053892;28;20047;-67
2022/08/12 12:14:57;;;;;;;6.65;3.33;;;;;;;;;;5055129;28;20037;-67
2022/08/12 12:17:24;;;;;;;7.22;3.33;;;;;;;;;;5040405;28;20048;-66
2022/08/12 12:19:52;;;;;;;7.60;3.20;;;;;;;;;;5055079;28;20079;-67
2022/08/12 12:22:26;;;;;;;13.90;3.15;;;;;;;;;;5052823;28;20048;-67
2022/08/12 12:24:53;;;;;;;11.85;3.10;;;;;;;;;;5054915;28;20624;-67
2022/08/12 12:27:19;;;;;;;8.27;3.75;;;;;;;;;;5053683;28;20075;-66
2022/08/12 12:29:46;;;;;;;9.50;3.20;;;;;;;;;;5043312;28;20495;-65
2022/08/12 12:32:13;;;;;;;9.38;3.40;;;;;;;;;;5054333;28;20032;-68
2022/08/12 12:34:40;;;;;;;8.20;3.53;;;;;;;;;;5054505;28;20043;-68
2022/08/12 12:37:11;;;;;;;12.38;3.38;;;;;;;;;;5054680;28;20585;-67
2022/08/12 12:39:38;;;;;;;10.25;3.47;;;;;;;;;;5052952;28;20051;-67
2022/08/12 12:42:05;;;;;;;9.02;3.42;;;;;;;;;;5053127;28;21780;-65
2022/08/12 12:44:32;;;;;;;7.43;3.33;;;;;;;;;;5050916;28;20033;-66
2022/08/12 12:46:59;;;;;;;9.75;3.50;;;;;;;;;;5052233;28;20044;-67
2022/08/12 12:49:25;;;;;;;7.95;2.83;;;;;;;;;;5051368;28;20039;-67
2022/08/12 12:51:52;;;;;;;10.77;3.40;;;;;;;;;;5054302;28;20041;-67
2022/08/12 12:54:19;;;;;;;7.60;3.40;;;;;;;;;;5051106;28;20518;-67
2022/08/12 12:56:48;;;;;;;10.00;3.70;;;;;;;;;;5052673;28;20045;-66
2022/08/12 12:59:17;;;;;;;9.50;3.42;;;;;;;;;;5052734;28;20036;-67
2022/08/12 13:01:44;;;;;;;7.53;3.58;;;;;;;;;;5037285;28;20456;-67
2022/08/12 13:04:11;;;;;;;7.30;3.15;;;;;;;;;;5052538;28;20797;-67
2022/08/12 13:06:40;;;;;;;7.93;3.42;;;;;;;;;;5049704;28;20139;-67
2022/08/12 13:09:08;;;;;;;9.43;3.58;;;;;;;;;;5041422;28;20037;-66
2022/08/12 13:11:36;;;;;;;7.32;3.35;;;;;;;;;;5051173;28;20214;-66
2022/08/12 13:14:04;;;;;;;10.40;4.22;;;;;;;;;;5052406;28;20036;-66
2022/08/12 13:16:30;;;;;;;10.65;3.65;;;;;;;;;;5051190;28;20032;-64
2022/08/12 13:18:57;;;;;;;12.55;5.13;;;;;;;;;;5050898;28;20040;-67
2022/08/12 13:21:29;;;;;;;10.20;3.65;;;;;;;;;;5052394;28;20048;-67
2022/08/12 13:23:56;;;;;;;16.13;4.18;;;;;;;;;;5053171;28;20033;-67
2022/08/12 13:26:22;;;;;;;10.88;4.00;;;;;;;;;;5050984;28;20064;-66
2022/08/12 13:28:52;;;;;;;8.50;3.88;;;;;;;;;;5050442;28;20047;-66
2022/08/12 13:31:20;;;;;;;11.77;4.13;;;;;;;;;;5051024;28;20029;-66
2022/08/12 13:33:50;;;;;;;8.98;3.95;;;;;;;;;;5051514;28;20067;-66
2022/08/12 13:36:19;;;;;;;14.82;3.88;;;;;;;;;;5053275;28;20036;-66
2022/08/12 13:38:49;;;;;;;12.55;4.22;;;;;;;;;;5052687;28;20040;-66
2022/08/12 13:41:32;;;;;;;12.27;4.15;;;;;;;;;;5052769;28;20037;-66
2022/08/12 13:43:59;;;;;;;9.45;4.00;;;;;;;;;;5051535;28;20055;-67
2022/08/12 13:46:25;;;;;;;12.30;4.20;;;;;;;;;;5051210;28;20774;-67
2022/08/12 13:48:55;;;;;;;9.88;3.90;;;;;;;;;;5053579;28;20132;-67
2022/08/12 13:51:22;;;;;;;12.43;3.90;;;;;;;;;;5054022;28;20413;-66
2022/08/12 13:53:49;;;;;;;7.28;3.53;;;;;;;;;;5055184;28;20517;-65
2022/08/12 13:56:16;;;;;;;15.85;4.07;;;;;;;;;;5054172;28;20032;-66
2022/08/12 13:58:50;;;;;;;10.88;4.47;;;;;;;;;;5057384;28;20055;-67
2022/08/12 14:01:19;;;;;;;10.57;4.05;;;;;;;;;;5056224;28;20198;-67
2022/08/12 14:03:46;;;;;;;11.85;4.45;;;;;;;;;;5052254;28;20491;-67
2022/08/12 14:06:13;;;;;;;10.65;3.80;;;;;;;;;;5053018;28;20044;-67
2022/08/12 14:08:40;;;;;;;10.50;4.70;;;;;;;;;;5055410;28;20098;-68
2022/08/12 14:11:07;;;;;;;11.93;4.18;;;;;;;;;;5055437;28;20069;-67
2022/08/12 14:13:38;;;;;;;10.15;4.47;;;;;;;;;;5051196;28;20098;-68
2022/08/12 14:16:06;;;;;;;12.20;4.03;;;;;;;;;;5051639;28;20048;-67
2022/08/12 14:18:34;;;;;;;6.30;3.85;;;;;;;;;;5048126;28;20135;-67
2022/08/12 14:21:02;;;;;;;7.82;4.05;;;;;;;;;;5038851;28;20118;-67
2022/08/12 14:23:37;;;;;;;8.52;4.05;;;;;;;;;;5050778;28;20451;-66
2022/08/12 14:26:11;;;;;;;9.98;4.38;;;;;;;;;;5056138;28;20133;-67
2022/08/12 14:28:38;;;;;;;9.35;4.05;;;;;;;;;;5049726;28;20101;-65
2022/08/12 14:31:06;;;;;;;13.60;4.57;;;;;;;;;;5050512;28;20082;-66
2022/08/12 14:33:37;;;;;;;14.07;4.45;;;;;;;;;;5050931;28;20117;-65
2022/08/12 14:36:05;;;;;;;15.25;4.75;;;;;;;;;;5051176;28;20036;-68
2022/08/12 14:38:36;;;;;;;13.13;3.97;;;;;;;;;;5049914;28;20045;-67
2022/08/12 14:41:03;;;;;;;10.60;4.35;;;;;;;;;;5057300;28;20849;-66
2022/08/12 14:43:38;;;;;;;11.93;3.60;;;;;;;;;;5052371;28;20033;-68
2022/08/12 14:46:14;;;;;;;9.35;3.50;;;;;;;;;;5040136;28;20208;-69
2022/08/12 14:48:45;;;;;;;7.55;4.03;;;;;;;;;;5050921;28;20105;-68
2022/08/12 14:51:12;;;;;;;8.23;4.28;;;;;;;;;;5056591;28;20045;-66
2022/08/12 14:53:40;;;;;;;9.65;4.43;;;;;;;;;;5055892;28;20044;-67
2022/08/12 14:56:07;;;;;;;11.23;4.20;;;;;;;;;;5057603;28;20033;-68
2022/08/12 14:58:34;;;;;;;11.88;4.65;;;;;;;;;;5044196;28;20100;-68
2022/08/12 15:03:46;;;;;;;11.48;4.28;;;;;;;;;;5044611;28;20583;-67
2022/08/12 15:06:14;;;;;;;11.40;4.80;;;;;;;;;;5054295;28;20158;-67
2022/08/12 15:08:41;;;;;;;13.50;4.57;;;;;;;;;;5053350;28;20048;-67
2022/08/12 15:11:12;;;;;;;10.10;4.13;;;;;;;;;;5054906;28;20044;-67
2022/08/12 15:13:39;;;;;;;9.15;3.97;;;;;;;;;;5053595;28;20092;-67
2022/08/12 15:16:06;;;;;;;10.88;3.88;;;;;;;;;;5056088;28;20041;-64
2022/08/12 15:18:33;;;;;;;10.55;5.28;;;;;;;;;;5053338;28;20052;-65
2022/08/12 15:21:00;;;;;;;14.45;8.38;;;;;;;;;;5055470;28;20051;-65
2022/08/12 15:23:32;;;;;;;9.05;4.30;;;;;;;;;;5053645;28;20503;-67
2022/08/12 15:26:03;;;;;;;7.57;4.22;;;;;;;;;;5053490;28;20132;-67
2022/08/12 15:28:30;;;;;;;8.52;3.72;;;;;;;;;;5053082;28;20068;-67
2022/08/12 15:30:57;;;;;;;7.25;4.00;;;;;;;;;;5053520;28;20037;-68
2022/08/12 15:33:25;;;;;;;8.45;3.70;;;;;;;;;;5053604;28;20595;-67
2022/08/12 15:35:51;;;;;;;10.38;3.40;;;;;;;;;;5041411;28;20032;-66
2022/08/12 15:38:19;;;;;;;14.38;7.25;;;;;;;;;;5053700;28;20048;-67
2022/08/12 15:40:51;;;;;;;10.63;5.18;;;;;;;;;;5054267;28;20033;-67
2022/08/12 15:43:18;;;;;;;6.90;3.65;;;;;;;;;;5054153;28;20494;-67
2022/08/12 15:45:45;;;;;;;6.72;3.28;;;;;;;;;;5055077;28;20037;-67
2022/08/12 15:48:13;;;;;;;8.45;3.00;;;;;;;;;;5054578;28;20049;-67
2022/08/12 15:50:42;;;;;;;6.97;3.00;;;;;;;;;;5054741;28;20049;-66
2022/08/12 15:53:08;;;;;;;8.57;3.10;;;;;;;;;;5052054;28;20108;-67
2022/08/12 15:55:35;;;;;;;5.68;2.83;;;;;;;;;;5057458;28;20056;-67
2022/08/12 15:58:02;;;;;;;6.28;2.65;;;;;;;;;;5052579;28;20546;-67
2022/08/12 16:00:32;;;;;;;5.00;2.30;;;;;;;;;;5057104;28;20040;-67
2022/08/12 16:03:00;;;;;;;4.63;2.45;;;;;;;;;;5053618;28;20029;-67
2022/08/12 16:05:28;;;;;;;5.88;2.70;;;;;;;;;;5053192;28;20055;-68
2022/08/12 16:07:56;;;;;;;8.25;2.85;;;;;;;;;;5053930;28;20053;-67
2022/08/12 16:10:24;;;;;;;6.15;2.72;;;;;;;;;;5052824;28;20586;-67
2022/08/12 16:12:55;;;;;;;6.53;2.90;;;;;;;;;;5054519;28;20039;-67
2022/08/12 16:15:22;;;;;;;6.28;2.92;;;;;;;;;;5054449;28;20039;-67
2022/08/12 16:17:50;;;;;;;5.15;2.58;;;;;;;;;;5052567;28;20051;-68
2022/08/12 16:20:21;;;;;;;6.35;2.90;;;;;;;;;;5053290;28;20058;-67
2022/08/12 16:22:48;;;;;;;5.70;2.55;;;;;;;;;;5057661;28;20404;-66
2022/08/12 16:25:16;;;;;;;8.70;2.83;;;;;;;;;;5054082;28;20040;-66
2022/08/12 16:27:43;;;;;;;10.88;2.70;;;;;;;;;;5053251;28;20044;-66
2022/08/12 16:30:10;;;;;;;5.90;3.00;;;;;;;;;;5056656;28;20406;-67
2022/08/12 16:32:36;;;;;;;8.20;3.58;;;;;;;;;;5057032;28;20044;-67